Time;durP1;ratioP1;P1;durP2;ratioP2;P2;SDS_P1;SDS_P2;PMS_P1;PMS_P2;Temp;Humidity;BMP_temperature;BMP_pressure;BME280_temperature;BME280_humidity;BME280_pressure;Samples;Min_cycle;Max_cycle;Signal;HPM_P1;HPM_P2
2022/04/06 00:00:17;;;;;;;;;;;;;;;14.96;65.71;100067.16;1045421;28;657;-60
2022/04/06 00:01:08;;;;;;;;;;;;;;;14.98;65.31;100061.66;1046449;28;1961;-60
2022/04/06 00:01:58;;;;;;;;;;;;;;;14.96;65.76;100066.31;1045706;28;658;-60
2022/04/06 00:02:48;;;;;;;;;;;;;;;14.94;65.36;100061.94;1045760;28;668;-61
2022/04/06 00:03:40;;;;;;;;;;;;;;;14.94;65.65;100058.41;1046405;28;1224;-61
2022/04/06 00:04:31;;;;;;;;;;;;;;;14.94;65.67;100059.28;1046489;28;618;-60
2022/04/06 00:05:21;;;;;;;;;;;;;;;14.93;65.70;100056.72;1045427;28;697;-61
2022/04/06 00:06:12;;;;;;;;;;;;;;;14.93;65.85;100060.25;1046529;28;654;-61
2022/04/06 00:07:03;;;;;;;;;;;;;;;14.94;65.75;100056.59;1045367;28;650;-60
2022/04/06 00:07:53;;;;;;;;;;;;;;;14.92;65.46;100061.25;1045196;28;891;-60
2022/04/06 00:08:44;;;;;;;;;;;;;;;14.94;65.84;100059.28;1041947;28;595;-60
2022/04/06 00:09:37;;;;;;;;;;;;;;;14.94;65.34;100055.75;1041371;28;689;-60
2022/04/06 00:10:28;;;;;;;;;;;;;;;14.94;65.34;100059.28;1037044;28;622;-60
2022/04/06 00:11:18;;;;;;;;;;;;;;;14.94;65.53;100059.28;1037551;28;631;-60
2022/04/06 00:12:09;;;;;;;;;;;;;;;14.94;65.32;100059.28;1041326;28;614;-60
2022/04/06 00:12:59;;;;;;;;;;;;;;;14.94;65.49;100050.38;1041220;28;626;-60
2022/04/06 00:13:50;;;;;;;;;;;;;;;14.93;65.26;100051.38;1041394;28;642;-60
2022/04/06 00:14:40;;;;;;;;;;;;;;;14.90;65.30;100047.13;1041229;28;661;-60
2022/04/06 00:15:30;;;;;;;;;;;;;;;14.90;65.81;100047.13;1041990;28;658;-62
2022/04/06 00:16:21;;;;;;;;;;;;;;;14.90;65.59;100047.13;1041445;28;630;-61
2022/04/06 00:17:13;;;;;;;;;;;;;;;14.90;65.76;100047.13;1040811;28;653;-61
2022/04/06 00:18:04;;;;;;;;;;;;;;;14.90;65.40;100047.13;1041280;28;610;-60
2022/04/06 00:18:55;;;;;;;;;;;;;;;14.90;65.78;100047.13;1041272;28;641;-61
2022/04/06 00:19:46;;;;;;;;;;;;;;;14.90;65.31;100047.13;1041220;28;630;-60
2022/04/06 00:20:36;;;;;;;;;;;;;;;14.89;65.65;100045.44;1041246;28;708;-61
2022/04/06 00:21:27;;;;;;;;;;;;;;;14.90;65.47;100043.59;1041219;28;677;-60
2022/04/06 00:22:18;;;;;;;;;;;;;;;14.88;65.35;100043.75;1041256;28;637;-60
2022/04/06 00:23:08;;;;;;;;;;;;;;;14.90;65.63;100043.59;1041255;28;636;-60
2022/04/06 00:23:59;;;;;;;;;;;;;;;14.88;65.45;100041.06;1041317;28;660;-60
2022/04/06 00:24:49;;;;;;;;;;;;;;;14.89;65.71;100041.91;1041264;28;839;-60
2022/04/06 00:25:40;;;;;;;;;;;;;;;14.90;65.39;100041.75;1037307;28;654;-60
2022/04/06 00:26:30;;;;;;;;;;;;;;;14.89;65.09;100042.75;1037435;28;666;-60
2022/04/06 00:27:20;;;;;;;;;;;;;;;14.87;65.09;100039.38;1041421;28;653;-61
2022/04/06 00:28:11;;;;;;;;;;;;;;;14.88;64.82;100033.03;1041324;28;668;-61
2022/04/06 00:29:01;;;;;;;;;;;;;;;14.89;65.25;100042.75;1041282;28;625;-61
2022/04/06 00:29:52;;;;;;;;;;;;;;;14.88;65.28;100030.34;1041611;28;1567;-61
2022/04/06 00:30:42;;;;;;;;;;;;;;;14.87;65.28;100035.84;1041798;28;638;-61
2022/04/06 00:31:32;;;;;;;;;;;;;;;14.85;65.25;100035.19;1041221;28;739;-61
2022/04/06 00:32:23;;;;;;;;;;;;;;;14.86;65.47;100037.72;1041178;28;678;-60
2022/04/06 00:33:13;;;;;;;;;;;;;;;14.86;65.27;100029.66;1041807;28;611;-60
2022/04/06 00:34:04;;;;;;;;;;;;;;;14.87;64.91;100034.00;1041808;28;641;-60
2022/04/06 00:36:03;;;;;;;;;;;;;;;14.85;65.13;100022.59;1040638;28;820;-60
2022/04/06 00:36:55;;;;;;;;;;;;;;;14.84;65.63;100025.44;1041785;28;622;-60
2022/04/06 00:37:45;;;;;;;;;;;;;;;14.84;64.96;100023.59;1040579;28;635;-61
2022/04/06 00:38:36;;;;;;;;;;;;;;;14.85;65.62;100029.81;1041316;28;661;-60
2022/04/06 00:39:27;;;;;;;;;;;;;;;14.84;65.00;100023.59;1041081;28;631;-60
2022/04/06 00:40:19;;;;;;;;;;;;;;;14.85;65.00;100027.13;1040529;28;642;-60
2022/04/06 00:41:10;;;;;;;;;;;;;;;14.84;65.50;100015.56;1040655;28;1953;-60
2022/04/06 00:42:01;;;;;;;;;;;;;;;14.83;65.57;100027.28;1041186;28;705;-60
2022/04/06 00:42:53;;;;;;;;;;;;;;;14.83;65.60;100024.59;1041180;28;611;-66
2022/04/06 00:43:43;;;;;;;;;;;;;;;14.82;65.50;100022.91;1041141;28;682;-62
2022/04/06 00:44:34;;;;;;;;;;;;;;;14.83;65.10;100019.22;1041669;28;689;-62
2022/04/06 00:45:25;;;;;;;;;;;;;;;14.83;65.10;100021.06;1041103;28;635;-62
2022/04/06 00:46:15;;;;;;;;;;;;;;;14.83;65.54;100026.44;1041235;28;685;-62
2022/04/06 00:47:06;;;;;;;;;;;;;;;14.82;65.45;100020.22;1041251;28;662;-62
2022/04/06 00:47:56;;;;;;;;;;;;;;;14.82;65.15;100020.22;1041115;28;646;-62
2022/04/06 00:48:46;;;;;;;;;;;;;;;14.82;65.21;100014.00;1041172;28;650;-61
2022/04/06 00:49:37;;;;;;;;;;;;;;;14.83;65.10;100019.22;1041049;28;695;-61
2022/04/06 00:50:27;;;;;;;;;;;;;;;14.82;65.50;100014.84;1041633;28;697;-61
2022/04/06 00:51:18;;;;;;;;;;;;;;;14.83;65.53;100016.53;1041675;28;700;-62
2022/04/06 00:52:08;;;;;;;;;;;;;;;14.82;65.08;100012.16;1041715;28;677;-61
2022/04/06 00:52:59;;;;;;;;;;;;;;;14.83;64.76;100018.38;1041161;28;713;-61
2022/04/06 00:53:49;;;;;;;;;;;;;;;14.83;65.46;100021.06;1041698;28;681;-61
2022/04/06 00:54:40;;;;;;;;;;;;;;;14.83;65.38;100010.34;1041037;28;728;-61
2022/04/06 00:55:31;;;;;;;;;;;;;;;14.82;64.93;100017.53;1041028;28;678;-60
2022/04/06 00:56:21;;;;;;;;;;;;;;;14.81;65.42;100013.16;1041180;28;658;-60
2022/04/06 00:57:13;;;;;;;;;;;;;;;14.83;65.32;100013.00;1041657;28;618;-60
2022/04/06 00:58:03;;;;;;;;;;;;;;;14.82;65.25;100006.81;1041107;28;615;-60
2022/04/06 00:58:54;;;;;;;;;;;;;;;14.81;65.32;100001.59;1041624;28;709;-60
2022/04/06 00:59:44;;;;;;;;;;;;;;;14.82;65.29;100014.00;1040478;28;658;-60
2022/04/06 01:00:34;;;;;;;;;;;;;;;14.81;65.45;100006.94;1041231;28;736;-61
2022/04/06 01:01:25;;;;;;;;;;;;;;;14.80;65.41;99999.88;1041056;28;629;-60
2022/04/06 01:02:15;;;;;;;;;;;;;;;14.79;65.12;100001.72;1041216;28;682;-60
2022/04/06 01:03:06;;;;;;;;;;;;;;;14.79;65.26;100001.72;1041185;28;638;-60
2022/04/06 01:03:56;;;;;;;;;;;;;;;14.79;64.91;99991.00;1041082;28;626;-61
2022/04/06 01:04:46;;;;;;;;;;;;;;;14.80;64.81;99998.06;1041172;28;720;-61
2022/04/06 01:05:37;;;;;;;;;;;;;;;14.82;65.24;99998.75;1041013;28;689;-61
2022/04/06 01:06:27;;;;;;;;;;;;;;;14.80;65.35;99999.88;1040390;28;673;-61
2022/04/06 01:07:18;;;;;;;;;;;;;;;14.80;65.39;99997.22;1041073;28;641;-61
2022/04/06 01:08:08;;;;;;;;;;;;;;;14.80;65.10;99997.22;1041116;28;657;-59
2022/04/06 01:08:59;;;;;;;;;;;;;;;14.80;64.66;100002.56;1041152;28;745;-59
2022/04/06 01:09:49;;;;;;;;;;;;;;;14.79;65.38;99998.19;1040968;28;680;-59
2022/04/06 01:10:39;;;;;;;;;;;;;;;14.79;64.91;99999.03;1041168;28;657;-60
2022/04/06 01:11:30;;;;;;;;;;;;;;;14.78;65.25;100000.03;1040886;28;689;-63
2022/04/06 01:12:20;;;;;;;;;;;;;;;14.77;65.08;99998.34;1041164;28;634;-61
2022/04/06 01:13:11;;;;;;;;;;;;;;;14.77;65.01;99998.34;1041139;28;633;-61
2022/04/06 01:14:02;;;;;;;;;;;;;;;14.76;65.19;99996.66;1041155;28;693;-61
2022/04/06 01:14:52;;;;;;;;;;;;;;;14.77;65.07;99995.66;1041572;28;630;-61
2022/04/06 01:15:43;;;;;;;;;;;;;;;14.76;64.76;99993.97;1041076;28;641;-61
2022/04/06 01:16:33;;;;;;;;;;;;;;;14.77;65.20;99997.50;1040996;28;684;-61
2022/04/06 01:17:23;;;;;;;;;;;;;;;14.75;65.28;99992.28;1041147;28;645;-61
2022/04/06 01:18:14;;;;;;;;;;;;;;;14.77;64.77;99998.34;1041217;28;697;-61
2022/04/06 01:19:04;;;;;;;;;;;;;;;14.76;65.22;99993.13;1041093;28;606;-61
2022/04/06 01:19:55;;;;;;;;;;;;;;;14.75;64.98;99994.97;1037173;28;709;-61
2022/04/06 01:20:45;;;;;;;;;;;;;;;14.75;65.20;99997.63;1037163;28;599;-60
2022/04/06 01:21:35;;;;;;;;;;;;;;;14.76;64.69;99996.66;1040540;28;634;-61
2022/04/06 01:22:26;;;;;;;;;;;;;;;14.76;65.24;99993.13;1040697;28;661;-60
2022/04/06 01:23:16;;;;;;;;;;;;;;;14.77;64.48;99997.50;1041040;28;665;-60
2022/04/06 01:24:07;;;;;;;;;;;;;;;14.74;64.77;99987.91;1041035;28;633;-60
2022/04/06 01:24:57;;;;;;;;;;;;;;;14.75;65.20;99997.63;1040962;28;680;-60
2022/04/06 01:25:48;;;;;;;;;;;;;;;14.77;64.71;99989.44;1040993;28;680;-61
2022/04/06 01:26:38;;;;;;;;;;;;;;;14.75;64.96;99994.97;1040942;28;752;-61
2022/04/06 01:27:29;;;;;;;;;;;;;;;14.73;64.61;99996.94;1041078;28;645;-61
2022/04/06 01:28:19;;;;;;;;;;;;;;;14.73;64.96;99988.91;1040995;28;699;-60
2022/04/06 01:29:09;;;;;;;;;;;;;;;14.73;64.87;99985.38;1041535;28;1762;-61
2022/04/06 01:30:00;;;;;;;;;;;;;;;14.74;64.96;99987.06;1045722;28;621;-61
2022/04/06 01:30:50;;;;;;;;;;;;;;;14.73;64.83;99988.06;1046272;28;617;-60
2022/04/06 01:31:41;;;;;;;;;;;;;;;14.73;64.65;99988.91;1045207;28;618;-60
2022/04/06 01:32:35;;;;;;;;;;;;;;;14.73;64.64;99991.56;1045102;28;617;-60
2022/04/06 01:33:25;;;;;;;;;;;;;;;14.73;64.59;99982.69;1045799;28;665;-61
2022/04/06 01:34:16;;;;;;;;;;;;;;;14.72;64.81;99991.72;1046239;28;665;-61
2022/04/06 01:35:06;;;;;;;;;;;;;;;14.70;64.64;99986.50;1045652;28;708;-61
2022/04/06 01:35:57;;;;;;;;;;;;;;;14.72;65.19;99989.88;1046273;28;625;-61
2022/04/06 01:36:47;;;;;;;;;;;;;;;14.70;65.18;99981.13;1045010;28;638;-61
2022/04/06 01:37:38;;;;;;;;;;;;;;;14.69;65.13;99984.00;1046214;28;648;-60
2022/04/06 01:38:28;;;;;;;;;;;;;;;14.69;65.01;99984.81;1046252;28;637;-61
2022/04/06 01:39:18;;;;;;;;;;;;;;;14.70;65.00;99985.66;1046276;28;645;-60
2022/04/06 01:40:09;;;;;;;;;;;;;;;14.70;64.87;99983.81;1046195;28;645;-60
2022/04/06 01:40:59;;;;;;;;;;;;;;;14.70;64.70;99982.97;1046167;28;1905;-60
2022/04/06 01:41:50;;;;;;;;;;;;;;;14.69;64.93;99984.00;1044847;28;1671;-61
2022/04/06 01:42:40;;;;;;;;;;;;;;;14.70;65.07;99981.13;1040938;28;630;-61
2022/04/06 01:43:30;;;;;;;;;;;;;;;14.69;64.56;99982.13;1040381;28;618;-61
2022/04/06 01:44:21;;;;;;;;;;;;;;;14.69;65.00;99987.50;1040654;28;625;-62
2022/04/06 01:45:11;;;;;;;;;;;;;;;14.69;65.05;99984.00;1040901;28;634;-61
2022/04/06 01:46:02;;;;;;;;;;;;;;;14.70;64.89;99988.34;1040998;28;697;-60
2022/04/06 01:46:52;;;;;;;;;;;;;;;14.69;64.83;99984.81;1040864;28;721;-60
2022/04/06 01:47:43;;;;;;;;;;;;;;;14.69;64.56;99984.81;1041026;28;657;-60
2022/04/06 01:52:11;;;;;;;;;;;;;;;14.69;64.56;99979.44;1040957;28;700;-62
2022/04/06 01:52:15;;;;;;;;;;;;;;;14.68;64.75;99976.94;1044637;28;622;-60
2022/04/06 01:53:05;;;;;;;;;;;;;;;14.68;64.91;99983.16;1043743;28;745;-60
2022/04/06 01:53:56;;;;;;;;;;;;;;;14.68;65.13;99987.66;1044992;28;629;-61
2022/04/06 01:54:46;;;;;;;;;;;;;;;14.67;64.93;99981.47;1044941;28;697;-61
2022/04/06 01:55:36;;;;;;;;;;;;;;;14.67;64.56;99981.47;1045040;28;681;-61
2022/04/06 01:56:27;;;;;;;;;;;;;;;14.67;65.01;99981.47;1044524;28;681;-60
2022/04/06 01:57:17;;;;;;;;;;;;;;;14.66;64.85;99979.75;1043766;28;606;-61
2022/04/06 01:58:08;;;;;;;;;;;;;;;14.66;65.15;99976.25;1044065;28;733;-61
2022/04/06 01:58:59;;;;;;;;;;;;;;;14.65;64.53;99978.06;1043874;28;603;-60
2022/04/06 01:59:49;;;;;;;;;;;;;;;14.67;64.64;99985.97;1040859;28;642;-61
2022/04/06 02:00:40;;;;;;;;;;;;;;;14.66;64.41;99982.44;1040878;28;712;-61
2022/04/06 02:01:30;;;;;;;;;;;;;;;14.65;64.31;99986.13;1040697;28;626;-61
2022/04/06 02:02:21;;;;;;;;;;;;;;;14.66;64.59;99979.75;1040779;28;633;-62
2022/04/06 02:03:11;;;;;;;;;;;;;;;14.66;65.04;99978.91;1040766;28;704;-61
2022/04/06 02:04:06;;;;;;;;;;;;;;;14.65;64.33;99971.88;1040921;28;747;-60
2022/04/06 02:04:56;;;;;;;;;;;;;;;14.64;64.87;99987.09;1041465;28;759;-61
2022/04/06 02:05:47;;;;;;;;;;;;;;;14.64;64.95;99980.91;1040810;28;646;-61
2022/04/06 02:06:37;;;;;;;;;;;;;;;14.64;64.51;99978.22;1040879;28;606;-60
2022/04/06 02:07:28;;;;;;;;;;;;;;;14.63;64.96;99974.69;1040915;28;661;-60
2022/04/06 02:08:18;;;;;;;;;;;;;;;14.65;64.41;99978.06;1040799;28;749;-61
2022/04/06 02:09:09;;;;;;;;;;;;;;;14.63;64.89;99974.69;1041532;28;766;-61
2022/04/06 02:10:00;;;;;;;;;;;;;;;14.64;64.36;99976.38;1040794;28;746;-61
2022/04/06 02:10:50;;;;;;;;;;;;;;;14.65;64.98;99977.22;1040764;28;721;-61
2022/04/06 02:11:42;;;;;;;;;;;;;;;14.64;64.73;99971.03;1040780;28;701;-62
2022/04/06 02:12:32;;;;;;;;;;;;;;;14.64;64.91;99980.91;1041384;28;610;-62
2022/04/06 02:13:23;;;;;;;;;;;;;;;14.64;64.51;99973.69;1040556;28;680;-62
2022/04/06 02:14:13;;;;;;;;;;;;;;;14.63;64.31;99974.69;1040799;28;649;-62
2022/04/06 02:15:04;;;;;;;;;;;;;;;14.63;64.67;99974.69;1040828;28;635;-61
2022/04/06 02:15:54;;;;;;;;;;;;;;;14.63;64.44;99974.69;1040859;28;728;-60
2022/04/06 02:16:44;;;;;;;;;;;;;;;14.63;64.32;99973.84;1040873;28;673;-60
2022/04/06 02:17:35;;;;;;;;;;;;;;;14.62;64.44;99967.63;1040863;28;708;-61
2022/04/06 02:18:25;;;;;;;;;;;;;;;14.63;64.15;99974.69;1040793;28;658;-60
2022/04/06 02:19:16;;;;;;;;;;;;;;;14.63;64.11;99966.66;1040969;28;657;-60
2022/04/06 02:20:06;;;;;;;;;;;;;;;14.64;64.53;99964.81;1040663;28;736;-60
2022/04/06 02:20:57;;;;;;;;;;;;;;;14.64;64.41;99967.50;1040726;28;1910;-60
2022/04/06 02:21:47;;;;;;;;;;;;;;;14.63;64.62;99968.47;1041294;28;711;-61
2022/04/06 02:22:38;;;;;;;;;;;;;;;14.62;64.52;99970.31;1040891;28;633;-60
2022/04/06 02:23:28;;;;;;;;;;;;;;;14.61;64.50;99967.78;1040725;28;696;-60
2022/04/06 02:24:19;;;;;;;;;;;;;;;14.59;64.22;99966.09;1040838;28;653;-60
2022/04/06 02:25:09;;;;;;;;;;;;;;;14.58;64.65;99961.72;1040714;28;665;-60
2022/04/06 02:25:59;;;;;;;;;;;;;;;14.60;64.67;99961.56;1040742;28;673;-60
2022/04/06 02:26:50;;;;;;;;;;;;;;;14.61;64.67;99959.75;1040787;28;638;-60
2022/04/06 02:27:40;;;;;;;;;;;;;;;14.60;64.49;99958.88;1040303;28;625;-61
2022/04/06 02:28:31;;;;;;;;;;;;;;;14.59;64.12;99959.88;1040813;28;617;-60
2022/04/06 02:29:21;;;;;;;;;;;;;;;14.60;64.36;99958.88;1040986;28;1460;-60
2022/04/06 02:30:11;;;;;;;;;;;;;;;14.58;64.04;99956.34;1041318;28;665;-60
2022/04/06 02:31:02;;;;;;;;;;;;;;;14.58;64.50;99958.19;1041309;28;674;-60
2022/04/06 02:31:52;;;;;;;;;;;;;;;14.58;64.30;99958.19;1040696;28;627;-60
2022/04/06 02:32:43;;;;;;;;;;;;;;;14.59;64.42;99959.88;1040722;28;736;-60
2022/04/06 02:33:33;;;;;;;;;;;;;;;14.58;64.12;99956.34;1041343;28;638;-59
2022/04/06 02:34:24;;;;;;;;;;;;;;;14.58;64.64;99958.19;1041395;28;487;-61
2022/04/06 02:35:14;;;;;;;;;;;;;;;14.57;64.48;99957.34;1041306;28;685;-61
2022/04/06 02:36:04;;;;;;;;;;;;;;;14.57;64.16;99948.44;1041452;28;622;-60
2022/04/06 02:36:55;;;;;;;;;;;;;;;14.56;64.53;99947.59;1041350;28;672;-61
2022/04/06 02:37:45;;;;;;;;;;;;;;;14.57;64.55;99954.66;1040773;28;657;-61
2022/04/06 02:38:38;;;;;;;;;;;;;;;14.57;63.74;99949.28;1041406;28;686;-62
2022/04/06 02:39:29;;;;;;;;;;;;;;;14.57;64.50;99948.44;1040793;28;649;-61
2022/04/06 02:40:19;;;;;;;;;;;;;;;14.56;64.49;99947.59;1041321;28;704;-61
2022/04/06 02:41:10;;;;;;;;;;;;;;;14.55;64.28;99950.44;1041188;28;1959;-62
2022/04/06 02:42:00;;;;;;;;;;;;;;;14.56;64.00;99946.75;1040654;28;677;-61
2022/04/06 02:42:51;;;;;;;;;;;;;;;14.55;64.15;99947.75;1040591;28;623;-61
2022/04/06 02:43:41;;;;;;;;;;;;;;;14.55;64.31;99945.91;1040754;28;1657;-61
2022/04/06 02:44:32;;;;;;;;;;;;;;;14.54;64.12;99943.38;1044850;28;610;-61
2022/04/06 02:45:22;;;;;;;;;;;;;;;14.54;64.45;99948.75;1044799;28;662;-60
2022/04/06 02:46:13;;;;;;;;;;;;;;;14.53;64.05;99942.53;1045378;28;630;-60
2022/04/06 02:47:04;;;;;;;;;;;;;;;14.54;63.77;99935.34;1044200;28;693;-61
2022/04/06 02:47:54;;;;;;;;;;;;;;;14.52;63.98;99945.34;1049220;28;1019;-60
2022/04/06 02:48:45;;;;;;;;;;;;;;;14.54;63.95;99938.03;1048061;28;622;-61
2022/04/06 02:49:36;;;;;;;;;;;;;;;14.54;64.31;99944.22;1045443;28;826;-61
2022/04/06 02:50:26;;;;;;;;;;;;;;;14.53;64.47;99942.53;1044735;28;610;-60
2022/04/06 02:51:17;;;;;;;;;;;;;;;14.54;64.04;99943.38;1044785;28;665;-60
2022/04/06 02:52:08;;;;;;;;;;;;;;;14.54;64.58;99928.13;1044902;28;732;-60
2022/04/06 02:52:58;;;;;;;;;;;;;;;14.53;64.29;99936.31;1044878;28;717;-60
2022/04/06 02:53:48;;;;;;;;;;;;;;;14.52;63.95;99929.28;1044860;28;721;-60
2022/04/06 02:54:39;;;;;;;;;;;;;;;14.52;64.02;99938.16;1044964;28;697;-61
2022/04/06 02:55:29;;;;;;;;;;;;;;;14.52;64.21;99930.13;1044725;28;709;-61
2022/04/06 02:56:20;;;;;;;;;;;;;;;14.53;63.58;99920.25;1044827;28;802;-61
2022/04/06 02:57:10;;;;;;;;;;;;;;;14.52;64.24;99931.94;1044806;28;618;-61
2022/04/06 02:58:00;;;;;;;;;;;;;;;14.52;64.17;99926.59;1044837;28;634;-61
2022/04/06 02:58:51;;;;;;;;;;;;;;;14.52;64.40;99926.59;1044808;28;728;-60
2022/04/06 02:59:41;;;;;;;;;;;;;;;14.50;64.17;99923.25;1041207;28;606;-61
2022/04/06 03:00:32;;;;;;;;;;;;;;;14.52;64.17;99921.22;1040706;28;678;-60
2022/04/06 03:01:22;;;;;;;;;;;;;;;14.52;64.15;99923.91;1040620;28;1949;-60
2022/04/06 03:02:13;;;;;;;;;;;;;;;14.50;64.00;99920.56;1040719;28;661;-59
2022/04/06 03:03:03;;;;;;;;;;;;;;;14.52;63.71;99923.91;1040703;28;634;-60
2022/04/06 03:03:54;;;;;;;;;;;;;;;14.51;63.72;99922.25;1040637;28;657;-60
2022/04/06 03:04:44;;;;;;;;;;;;;;;14.49;63.71;99919.72;1040642;28;736;-60
2022/04/06 03:05:35;;;;;;;;;;;;;;;14.49;64.20;99919.72;1040658;28;803;-60
2022/04/06 03:06:25;;;;;;;;;;;;;;;14.50;64.15;99920.56;1040815;28;676;-60
2022/04/06 03:07:15;;;;;;;;;;;;;;;14.50;63.72;99918.72;1040663;28;633;-61
2022/04/06 03:08:06;;;;;;;;;;;;;;;14.50;64.07;99923.25;1040613;28;669;-60
2022/04/06 03:08:57;;;;;;;;;;;;;;;14.48;64.08;99915.34;1041299;28;661;-60
2022/04/06 03:09:47;;;;;;;;;;;;;;;14.47;64.14;99915.50;1040610;28;693;-60
2022/04/06 03:10:38;;;;;;;;;;;;;;;14.47;64.09;99924.38;1040646;28;646;-60
2022/04/06 03:11:28;;;;;;;;;;;;;;;14.47;63.68;99921.69;1040258;28;662;-60
2022/04/06 03:12:18;;;;;;;;;;;;;;;14.47;63.71;99915.50;1040542;28;610;-60
2022/04/06 03:13:09;;;;;;;;;;;;;;;14.47;64.28;99916.34;1040816;28;724;-58
2022/04/06 03:13:59;;;;;;;;;;;;;;;14.47;63.66;99915.50;1040616;28;618;-60
2022/04/06 03:14:50;;;;;;;;;;;;;;;14.48;63.89;99919.84;1040648;28;664;-60
2022/04/06 03:15:40;;;;;;;;;;;;;;;14.46;63.60;99914.66;1040586;28;618;-60
2022/04/06 03:16:31;;;;;;;;;;;;;;;14.47;64.03;99920.84;1040625;28;713;-60
2022/04/06 03:17:21;;;;;;;;;;;;;;;14.46;63.89;99919.16;1040689;28;724;-60
2022/04/06 03:18:12;;;;;;;;;;;;;;;14.46;64.21;99921.84;1040669;28;617;-59
2022/04/06 03:19:02;;;;;;;;;;;;;;;14.46;63.80;99924.53;1040663;28;598;-60
2022/04/06 03:19:53;;;;;;;;;;;;;;;14.45;63.53;99917.47;1041249;28;701;-60
2022/04/06 03:20:43;;;;;;;;;;;;;;;14.45;63.79;99918.31;1040485;28;719;-59
2022/04/06 03:21:34;;;;;;;;;;;;;;;14.46;63.61;99914.66;1040596;28;653;-60
2022/04/06 03:22:24;;;;;;;;;;;;;;;14.46;63.32;99916.47;1040661;28;704;-59
2022/04/06 03:23:15;;;;;;;;;;;;;;;14.44;64.17;99911.25;1040529;28;647;-59
2022/04/06 03:24:05;;;;;;;;;;;;;;;14.45;63.84;99912.94;1040555;28;617;-59
2022/04/06 03:24:56;;;;;;;;;;;;;;;14.45;63.95;99912.09;1040537;28;736;-59
2022/04/06 03:25:46;;;;;;;;;;;;;;;14.45;63.89;99917.47;1040734;28;693;-59
2022/04/06 03:26:37;;;;;;;;;;;;;;;14.44;63.92;99911.25;1040500;28;633;-60
2022/04/06 03:27:27;;;;;;;;;;;;;;;14.44;64.05;99911.25;1040692;28;731;-60
2022/04/06 03:28:17;;;;;;;;;;;;;;;14.45;63.44;99912.09;1040590;28;701;-60
2022/04/06 03:29:08;;;;;;;;;;;;;;;14.44;63.85;99907.75;1042872;28;1454;-60
2022/04/06 03:29:58;;;;;;;;;;;;;;;14.44;63.96;99915.78;1046313;28;610;-60
2022/04/06 03:30:49;;;;;;;;;;;;;;;14.44;63.48;99915.78;1046657;28;684;-60
2022/04/06 03:31:40;;;;;;;;;;;;;;;14.43;63.61;99914.09;1045669;28;708;-60
2022/04/06 03:32:30;;;;;;;;;;;;;;;14.43;63.37;99917.63;1045654;28;752;-61
2022/04/06 03:33:20;;;;;;;;;;;;;;;14.45;63.76;99912.94;1046770;28;673;-61
2022/04/06 03:34:11;;;;;;;;;;;;;;;14.45;63.60;99914.78;1046691;28;709;-60
2022/04/06 03:35:01;;;;;;;;;;;;;;;14.46;63.28;99916.47;1045495;28;665;-60
2022/04/06 03:35:52;;;;;;;;;;;;;;;14.45;63.73;99914.78;1046716;28;700;-60
2022/04/06 03:36:42;;;;;;;;;;;;;;;14.43;63.40;99909.56;1045504;28;634;-59
2022/04/06 03:37:33;;;;;;;;;;;;;;;14.43;63.33;99908.72;1046663;28;712;-61
2022/04/06 03:38:23;;;;;;;;;;;;;;;14.44;63.62;99910.41;1046723;28;654;-60
2022/04/06 03:39:14;;;;;;;;;;;;;;;14.42;63.75;99907.03;1045538;28;748;-60
2022/04/06 03:40:05;;;;;;;;;;;;;;;14.42;63.54;99907.03;1046777;28;626;-60
2022/04/06 03:40:56;;;;;;;;;;;;;;;14.41;63.39;99905.34;1046147;28;728;-60
2022/04/06 03:41:46;;;;;;;;;;;;;;;14.42;63.36;99904.34;1046626;28;712;-60
2022/04/06 03:42:36;;;;;;;;;;;;;;;14.40;63.33;99907.19;1046628;28;712;-60
2022/04/06 03:43:27;;;;;;;;;;;;;;;14.40;63.36;99904.50;1046603;28;671;-60
2022/04/06 03:44:17;;;;;;;;;;;;;;;14.40;63.11;99900.94;1046727;28;625;-61
2022/04/06 03:45:08;;;;;;;;;;;;;;;14.41;62.96;99910.69;1046632;28;617;-61
2022/04/06 03:45:58;;;;;;;;;;;;;;;14.39;63.34;99905.47;1046277;28;629;-61
2022/04/06 03:46:49;;;;;;;;;;;;;;;14.40;63.12;99909.84;1045630;28;685;-61
2022/04/06 03:47:39;;;;;;;;;;;;;;;14.40;63.49;99898.25;1045437;28;621;-61
2022/04/06 03:48:30;;;;;;;;;;;;;;;14.40;63.20;99895.56;1046693;28;767;-61
2022/04/06 03:49:20;;;;;;;;;;;;;;;14.39;63.60;99893.88;1046579;28;685;-60
2022/04/06 03:50:10;;;;;;;;;;;;;;;14.37;63.38;99890.50;1046628;28;692;-60
2022/04/06 03:51:01;;;;;;;;;;;;;;;14.37;63.66;99896.72;1045545;28;654;-60
2022/04/06 03:51:51;;;;;;;;;;;;;;;14.38;63.42;99897.56;1045430;28;630;-60
2022/04/06 03:52:42;;;;;;;;;;;;;;;14.38;63.58;99884.16;1045561;28;602;-60
2022/04/06 03:53:32;;;;;;;;;;;;;;;14.37;63.32;99904.75;1045569;28;731;-60
2022/04/06 03:54:23;;;;;;;;;;;;;;;14.37;63.67;99896.72;1044891;28;635;-60
2022/04/06 03:55:13;;;;;;;;;;;;;;;14.37;63.36;99887.81;1045537;28;721;-60
2022/04/06 03:56:04;;;;;;;;;;;;;;;14.37;63.32;99882.47;1045439;28;628;-60
2022/04/06 03:56:54;;;;;;;;;;;;;;;14.34;63.69;99893.47;1045554;28;736;-60
2022/04/06 03:57:44;;;;;;;;;;;;;;;14.36;63.05;99886.97;1045451;28;622;-61
2022/04/06 03:58:35;;;;;;;;;;;;;;;14.37;63.02;99886.00;1045566;28;758;-61
2022/04/06 03:59:25;;;;;;;;;;;;;;;14.40;63.01;99882.19;1041380;28;690;-61
2022/04/06 04:00:16;;;;;;;;;;;;;;;14.42;62.63;99875.72;1041253;28;645;-61
2022/04/06 04:01:06;;;;;;;;;;;;;;;14.42;62.22;99875.72;1044898;28;1973;-62
2022/04/06 04:01:57;;;;;;;;;;;;;;;14.46;63.01;99877.13;1046584;28;696;-61
2022/04/06 04:02:48;;;;;;;;;;;;;;;14.55;62.94;99873.53;1045952;28;642;-61
2022/04/06 04:03:38;;;;;;;;;;;;;;;14.63;62.48;99883.53;1045790;28;1284;-61
2022/04/06 04:04:29;;;;;;;;;;;;;;;14.71;62.41;99878.25;1045433;28;824;-61
2022/04/06 04:05:20;;;;;;;;;;;;;;;14.79;61.91;99878.34;1046681;28;633;-61
2022/04/06 04:06:10;;;;;;;;;;;;;;;14.90;61.92;99883.50;1046014;28;765;-60
2022/04/06 04:07:01;;;;;;;;;;;;;;;15.02;61.75;99877.94;1046674;28;681;-61
2022/04/06 04:07:52;;;;;;;;;;;;;;;15.12;61.03;99876.00;1046090;28;673;-62
2022/04/06 04:08:42;;;;;;;;;;;;;;;15.23;61.06;99881.13;1045428;28;657;-59
2022/04/06 04:09:33;;;;;;;;;;;;;;;15.32;60.89;99880.25;1046045;28;637;-60
2022/04/06 04:10:23;;;;;;;;;;;;;;;15.49;60.30;99886.59;1046401;28;681;-60
2022/04/06 04:11:13;;;;;;;;;;;;;;;15.61;60.23;99880.84;1046556;28;704;-60
2022/04/06 04:12:04;;;;;;;;;;;;;;;15.76;59.45;99877.63;1046580;28;711;-60
2022/04/06 04:12:54;;;;;;;;;;;;;;;15.88;58.99;99879.06;1046553;28;649;-61
2022/04/06 04:13:45;;;;;;;;;;;;;;;16.02;58.87;99873.09;1046591;28;614;-61
2022/04/06 04:14:35;;;;;;;;;;;;;;;16.13;58.54;99874.66;1046400;28;669;-62
2022/04/06 04:15:25;;;;;;;;;;;;;;;16.27;58.23;99877.63;1046529;28;716;-62
2022/04/06 04:16:16;;;;;;;;;;;;;;;16.33;57.82;99881.50;1045446;28;725;-62
2022/04/06 04:17:07;;;;;;;;;;;;;;;16.43;57.87;99876.03;1046090;28;700;-60
2022/04/06 04:17:57;;;;;;;;;;;;;;;16.44;57.89;99870.50;1046590;28;649;-60
2022/04/06 04:18:47;;;;;;;;;;;;;;;16.53;57.37;99871.34;1045235;28;693;-61
2022/04/06 04:19:38;;;;;;;;;;;;;;;16.56;57.54;99881.78;1046491;28;676;-61
2022/04/06 04:20:28;;;;;;;;;;;;;;;16.60;57.44;99878.63;1045567;28;858;-61
2022/04/06 04:21:34;;;;;;;;;;;;;;;16.69;57.17;99886.75;1045072;28;1902;-60
2022/04/06 04:22:24;;;;;;;;;;;;;;;16.73;57.08;99880.88;1045218;28;630;-61
2022/04/06 04:23:15;;;;;;;;;;;;;;;16.72;57.02;99879.19;1046435;28;630;-61
2022/04/06 04:24:05;;;;;;;;;;;;;;;16.78;57.10;99870.47;1046121;28;661;-61
2022/04/06 04:24:55;;;;;;;;;;;;;;;16.86;56.80;99878.56;1046491;28;626;-61
2022/04/06 04:25:46;;;;;;;;;;;;;;;16.88;56.33;99876.56;1045630;28;677;-61
2022/04/06 04:26:36;;;;;;;;;;;;;;;16.90;56.66;99873.72;1046286;28;636;-60
2022/04/06 04:27:27;;;;;;;;;;;;;;;16.89;56.55;99877.41;1046443;28;700;-61
2022/04/06 04:28:17;;;;;;;;;;;;;;;16.89;56.65;99864.78;1046468;28;638;-61
2022/04/06 04:29:07;;;;;;;;;;;;;;;16.97;56.81;99872.91;1046255;28;1746;-61
2022/04/06 04:29:58;;;;;;;;;;;;;;;16.99;56.70;99872.75;1045432;28;708;-62
2022/04/06 04:30:49;;;;;;;;;;;;;;;17.04;56.50;99874.91;1045877;28;634;-62
2022/04/06 04:31:39;;;;;;;;;;;;;;;17.06;56.62;99867.53;1045306;28;760;-62
2022/04/06 04:32:29;;;;;;;;;;;;;;;17.14;55.71;99859.47;1045882;28;701;-61
2022/04/06 04:33:20;;;;;;;;;;;;;;;17.14;55.86;99864.84;1045958;28;833;-61